Time;durP1;ratioP1;P1;durP2;ratioP2;P2;SDS_P1;SDS_P2;PMS_P1;PMS_P2;Temp;Humidity;BMP_temperature;BMP_pressure;BME280_temperature;BME280_humidity;BME280_pressure;Samples;Min_cycle;Max_cycle;Signal;HPM_P1;HPM_P2
2021/01/19 10:50:11;;;;;;;2.93;1.83;;;5.50;99.90;;;;;;5088780;27;20578;-67
2021/01/19 10:52:39;;;;;;;1.80;1.70;;;5.70;99.90;;;;;;5084070;28;20431;-68
2021/01/19 10:55:05;;;;;;;4.57;1.90;;;5.80;99.90;;;;;;5090014;28;20991;-68
2021/01/19 10:57:31;;;;;;;2.40;1.73;;;5.90;99.90;;;;;;5070552;28;20445;-68
2021/01/19 10:59:56;;;;;;;3.17;2.00;;;6.00;99.90;;;;;;5079912;28;20185;-67
2021/01/19 11:02:22;;;;;;;1.80;1.60;;;6.20;99.90;;;;;;5069901;28;20178;-67
2021/01/19 11:04:47;;;;;;;1.73;1.63;;;6.20;99.90;;;;;;5072986;28;20580;-67
2021/01/19 11:07:13;;;;;;;4.33;2.10;;;6.30;99.90;;;;;;5070984;28;20697;-67
2021/01/19 11:09:38;;;;;;;3.97;2.00;;;6.50;99.90;;;;;;5073476;28;20214;-67
2021/01/19 11:12:04;;;;;;;2.13;1.93;;;6.50;99.90;;;;;;5073081;28;20171;-67
2021/01/19 11:14:29;;;;;;;2.80;2.50;;;6.50;99.90;;;;;;5080227;28;20274;-67
2021/01/19 11:16:55;;;;;;;3.07;2.30;;;6.60;99.90;;;;;;5069555;28;20174;-67
2021/01/19 11:19:20;;;;;;;5.87;2.80;;;6.70;99.90;;;;;;5069505;28;20235;-66
2021/01/19 11:21:46;;;;;;;3.23;2.20;;;6.70;99.90;;;;;;5069761;28;20182;-66
2021/01/19 11:24:12;;;;;;;2.93;2.10;;;6.80;99.90;;;;;;5069450;28;20549;-66
2021/01/19 11:26:41;;;;;;;2.23;2.00;;;6.80;99.90;;;;;;5069876;28;20239;-68
2021/01/19 11:29:07;;;;;;;6.37;2.37;;;6.90;99.90;;;;;;5068401;28;20475;-67
2021/01/19 11:31:34;;;;;;;4.50;2.53;;;7.00;99.90;;;;;;5069562;28;20574;-68
2021/01/19 11:34:05;;;;;;;2.33;1.60;;;7.10;99.90;;;;;;5069709;28;20186;-67
2021/01/19 11:36:34;;;;;;;2.30;2.10;;;7.10;99.90;;;;;;5068355;28;20508;-67
2021/01/19 11:39:01;;;;;;;6.80;2.40;;;7.20;99.90;;;;;;5069548;28;20433;-67
2021/01/19 11:41:27;;;;;;;2.90;1.87;;;7.20;99.90;;;;;;5069370;28;20754;-68
2021/01/19 11:43:54;;;;;;;3.97;1.70;;;7.20;99.90;;;;;;5069439;28;20425;-67
2021/01/19 11:46:22;;;;;;;2.03;1.80;;;7.30;99.90;;;;;;5069328;28;20421;-67
2021/01/19 11:48:48;;;;;;;1.97;1.77;;;7.20;99.90;;;;;;5069102;28;20468;-67
2021/01/19 11:51:20;;;;;;;4.03;2.20;;;7.30;99.90;;;;;;5069119;28;20429;-67
2021/01/19 11:53:48;;;;;;;2.70;1.80;;;7.30;99.90;;;;;;5069190;28;20820;-67
2021/01/19 11:56:14;;;;;;;1.70;1.60;;;7.30;99.90;;;;;;5069014;28;20546;-67
2021/01/19 11:58:41;;;;;;;3.03;1.77;;;7.40;99.90;;;;;;5069193;28;20448;-68
2021/01/19 12:01:06;;;;;;;2.43;1.87;;;7.50;99.90;;;;;;5057311;28;20425;-67
2021/01/19 12:03:32;;;;;;;3.10;1.77;;;7.50;99.90;;;;;;5055632;28;20428;-67
2021/01/19 12:05:57;;;;;;;3.50;1.97;;;7.60;99.90;;;;;;5055841;28;20176;-66
2021/01/19 12:08:23;;;;;;;1.87;1.43;;;7.60;99.90;;;;;;5049476;28;20207;-66
2021/01/19 12:10:48;;;;;;;1.70;1.53;;;7.70;99.90;;;;;;5061130;28;20261;-68
2021/01/19 12:13:14;;;;;;;1.80;1.70;;;7.70;99.90;;;;;;5071847;28;20206;-66
2021/01/19 12:15:43;;;;;;;2.50;1.73;;;7.70;99.90;;;;;;5055661;28;20178;-66
2021/01/19 12:18:10;;;;;;;1.60;1.50;;;7.70;99.90;;;;;;5055191;28;20170;-66
2021/01/19 12:20:36;;;;;;;2.90;2.27;;;7.60;99.90;;;;;;5055696;28;20444;-66
2021/01/19 12:23:03;;;;;;;1.93;1.73;;;7.70;99.90;;;;;;5055491;28;20777;-67
2021/01/19 12:25:29;;;;;;;1.93;1.70;;;7.70;99.90;;;;;;5055341;28;20830;-66
2021/01/19 12:27:55;;;;;;;4.23;1.90;;;7.80;99.90;;;;;;5055313;28;20433;-67
2021/01/19 12:30:21;;;;;;;2.07;1.73;;;7.80;99.90;;;;;;5055256;28;20436;-66
2021/01/19 12:32:46;;;;;;;1.90;1.73;;;7.80;99.90;;;;;;5055365;28;20504;-67
2021/01/19 12:35:12;;;;;;;2.63;2.20;;;7.80;99.90;;;;;;5055097;28;20422;-67
2021/01/19 12:37:38;;;;;;;2.13;1.93;;;7.80;99.90;;;;;;5055351;28;20221;-66
2021/01/19 12:40:05;;;;;;;2.90;2.60;;;7.80;99.90;;;;;;5055122;28;20171;-66
2021/01/19 12:42:31;;;;;;;2.27;2.13;;;7.80;99.90;;;;;;5055053;28;20209;-66
2021/01/19 12:44:57;;;;;;;2.60;2.40;;;7.90;99.90;;;;;;5054815;28;20786;-66
2021/01/19 12:47:22;;;;;;;3.60;2.73;;;7.90;99.90;;;;;;5059775;28;20186;-66
2021/01/19 12:49:48;;;;;;;2.67;1.80;;;7.90;99.90;;;;;;5054731;28;20231;-65
2021/01/19 12:52:13;;;;;;;5.80;2.20;;;7.90;99.90;;;;;;5054847;28;20163;-66
2021/01/19 12:54:39;;;;;;;2.37;2.13;;;8.00;99.90;;;;;;5068958;28;20186;-67
2021/01/19 12:57:04;;;;;;;2.13;1.93;;;8.00;99.90;;;;;;5074643;28;20178;-66
2021/01/19 12:59:30;;;;;;;3.23;1.83;;;8.00;99.90;;;;;;5061966;28;20210;-66
2021/01/19 13:02:04;;;;;;;2.70;2.40;;;8.10;99.90;;;;;;5074863;28;20170;-66
2021/01/19 13:04:30;;;;;;;3.03;2.70;;;8.20;99.90;;;;;;5066395;28;20436;-65
2021/01/19 13:06:56;;;;;;;3.17;2.10;;;8.20;99.90;;;;;;5054673;28;20429;-65
2021/01/19 13:09:21;;;;;;;2.00;1.80;;;8.10;99.90;;;;;;5054430;28;20682;-66
2021/01/19 13:11:47;;;;;;;2.63;1.90;;;8.20;99.90;;;;;;5053346;28;20178;-68
2021/01/19 13:14:12;;;;;;;3.50;1.87;;;8.20;99.90;;;;;;5052667;28;20630;-65
2021/01/19 13:16:38;;;;;;;5.63;2.60;;;8.20;99.90;;;;;;5054601;28;20258;-67
2021/01/19 13:19:03;;;;;;;2.03;1.60;;;8.20;99.90;;;;;;5052298;28;20232;-67
2021/01/19 13:21:29;;;;;;;2.60;1.90;;;8.30;99.90;;;;;;5053545;28;20249;-67
2021/01/19 13:23:55;;;;;;;2.23;2.03;;;8.30;99.90;;;;;;5053402;28;20281;-67
2021/01/19 13:26:20;;;;;;;2.73;2.53;;;8.40;99.90;;;;;;5053169;28;20171;-68
2021/01/19 13:28:46;;;;;;;2.57;2.37;;;8.30;99.90;;;;;;5053298;28;20301;-67
2021/01/19 13:31:11;;;;;;;2.90;2.10;;;8.30;99.90;;;;;;5052970;28;20201;-67
2021/01/19 13:33:37;;;;;;;5.40;2.87;;;8.30;99.90;;;;;;5052841;28;20186;-67
2021/01/19 13:36:03;;;;;;;2.37;2.17;;;8.40;99.90;;;;;;5053139;28;20535;-67
2021/01/19 13:38:28;;;;;;;3.42;2.30;;;8.40;99.90;;;;;;5052060;28;20972;-69
2021/01/19 13:40:54;;;;;;;2.40;2.20;;;8.60;99.90;;;;;;5052494;28;20229;-69
2021/01/19 13:43:20;;;;;;;2.30;1.80;;;8.70;99.90;;;;;;5052559;28;20163;-67
2021/01/19 13:45:45;;;;;;;2.03;1.93;;;8.70;99.90;;;;;;5052605;28;20175;-68
2021/01/19 13:48:12;;;;;;;1.97;1.80;;;8.70;99.90;;;;;;5051986;28;20757;-68
2021/01/19 13:50:38;;;;;;;4.00;1.90;;;8.60;99.90;;;;;;5052053;28;20635;-68
2021/01/19 13:53:03;;;;;;;1.97;1.70;;;8.70;99.90;;;;;;5052125;28;20516;-68
2021/01/19 13:55:29;;;;;;;2.53;1.60;;;8.80;99.90;;;;;;5051511;28;20516;-68
2021/01/19 13:57:55;;;;;;;2.70;2.50;;;8.80;99.90;;;;;;5052035;28;20321;-68
2021/01/19 14:00:21;;;;;;;3.13;2.03;;;8.80;99.90;;;;;;5051919;28;20714;-68
2021/01/19 14:02:47;;;;;;;3.07;2.67;;;8.90;99.90;;;;;;5049594;28;20175;-67
2021/01/19 14:05:12;;;;;;;3.30;1.97;;;8.90;99.90;;;;;;5052347;28;20425;-67
2021/01/19 14:07:38;;;;;;;3.77;2.33;;;8.90;99.90;;;;;;5051915;28;20175;-68
2021/01/19 14:10:07;;;;;;;2.70;2.47;;;8.90;99.90;;;;;;5052193;28;20613;-68
2021/01/19 14:12:33;;;;;;;3.47;2.60;;;9.00;99.90;;;;;;5052458;28;20580;-67
2021/01/19 14:14:59;;;;;;;2.90;2.60;;;8.80;99.90;;;;;;5051930;28;20433;-68
2021/01/19 14:17:28;;;;;;;3.57;2.30;;;9.00;99.90;;;;;;5052104;28;20602;-68
2021/01/19 14:19:54;;;;;;;3.13;2.60;;;8.90;99.90;;;;;;5052086;28;20430;-68
2021/01/19 14:22:19;;;;;;;2.97;2.67;;;9.00;99.90;;;;;;5050769;28;20503;-67
2021/01/19 14:24:45;;;;;;;3.93;2.53;;;9.00;99.90;;;;;;5051787;28;20441;-68
2021/01/19 14:27:10;;;;;;;2.87;2.67;;;9.00;99.90;;;;;;5052250;28;20205;-67
2021/01/19 14:29:36;;;;;;;5.27;3.40;;;9.00;99.90;;;;;;5051718;28;20627;-67
2021/01/19 14:32:01;;;;;;;4.03;3.63;;;9.00;99.90;;;;;;5050964;28;20171;-68
2021/01/19 14:34:27;;;;;;;3.50;3.20;;;9.10;99.90;;;;;;5050998;28;20618;-68
2021/01/19 14:36:54;;;;;;;4.90;3.60;;;9.10;99.90;;;;;;5051100;28;20167;-69
2021/01/19 14:39:19;;;;;;;10.70;3.77;;;9.10;99.90;;;;;;5051187;28;20586;-68
2021/01/19 14:41:46;;;;;;;4.10;3.47;;;9.20;99.90;;;;;;5051317;28;20457;-68
2021/01/19 14:44:13;;;;;;;3.90;3.57;;;9.20;99.90;;;;;;5052142;28;20209;-68
2021/01/19 14:46:39;;;;;;;6.20;3.50;;;9.20;99.90;;;;;;5052113;28;20429;-68
2021/01/19 14:49:06;;;;;;;4.10;3.67;;;9.30;99.90;;;;;;5061849;28;20510;-67
2021/01/19 14:51:32;;;;;;;4.70;4.20;;;9.20;99.90;;;;;;5071821;28;20486;-67
2021/01/19 14:53:57;;;;;;;5.13;3.63;;;9.20;99.90;;;;;;5071818;28;20425;-68
2021/01/19 14:56:37;;;;;;;4.67;3.57;;;9.40;99.90;;;;;;5072036;28;20427;-71
2021/01/19 14:59:04;;;;;;;6.00;5.20;;;9.40;99.90;;;;;;5071858;28;20656;-69
2021/01/19 15:01:48;;;;;;;4.57;4.17;;;9.50;99.90;;;;;;5064745;28;20429;-69
2021/01/19 15:04:18;;;;;;;5.10;4.70;;;9.60;99.90;;;;;;5031990;28;20882;-68
2021/01/19 15:06:49;;;;;;;4.47;3.87;;;9.50;99.90;;;;;;5031825;28;20948;-73
2021/01/19 15:09:17;;;;;;;8.40;5.30;;;9.50;99.90;;;;;;5031697;28;20478;-74
2021/01/19 15:11:49;;;;;;;5.20;4.70;;;9.40;99.90;;;;;;5031887;28;20421;-72
2021/01/19 15:14:15;;;;;;;6.33;4.67;;;9.40;99.90;;;;;;5031882;28;20430;-72
2021/01/19 15:16:41;;;;;;;4.93;4.53;;;9.50;99.90;;;;;;5031825;28;20926;-73
2021/01/19 15:19:07;;;;;;;5.10;4.70;;;9.40;99.90;;;;;;5031646;28;20466;-70
2021/01/19 15:21:32;;;;;;;6.40;5.80;;;9.20;99.90;;;;;;5031791;28;20180;-69
2021/01/19 15:23:58;;;;;;;5.97;5.40;;;9.30;99.90;;;;;;5042500;28;20179;-69
2021/01/19 15:26:24;;;;;;;7.47;6.67;;;9.40;99.90;;;;;;5051299;28;20436;-69
2021/01/19 15:28:49;;;;;;;11.83;5.97;;;9.20;99.90;;;;;;5050961;28;20276;-68
2021/01/19 15:31:15;;;;;;;5.57;5.07;;;9.10;99.90;;;;;;5051312;28;20614;-69
2021/01/19 15:33:40;;;;;;;6.17;5.07;;;9.30;99.90;;;;;;5051091;28;20179;-69
2021/01/19 15:36:06;;;;;;;6.40;5.80;;;9.30;99.90;;;;;;5053716;28;20171;-68
2021/01/19 15:38:32;;;;;;;6.70;5.97;;;9.30;99.90;;;;;;5055011;28;20583;-69
2021/01/19 15:40:58;;;;;;;6.30;5.50;;;9.40;99.90;;;;;;5054989;28;20483;-68
2021/01/19 15:43:23;;;;;;;6.77;5.83;;;9.50;99.90;;;;;;5055112;28;20250;-68
2021/01/19 15:45:49;;;;;;;10.30;5.67;;;9.40;99.90;;;;;;5054792;28;20536;-68
2021/01/19 15:48:14;;;;;;;7.07;6.37;;;9.40;99.90;;;;;;5054509;28;20254;-69
2021/01/19 15:50:40;;;;;;;6.83;6.23;;;9.40;99.90;;;;;;5054755;28;20164;-68
2021/01/19 15:53:06;;;;;;;7.67;6.17;;;9.40;99.90;;;;;;5054794;28;20550;-68
2021/01/19 15:55:32;;;;;;;8.13;7.33;;;9.50;99.90;;;;;;5054483;28;20480;-68
2021/01/19 15:57:57;;;;;;;6.33;5.83;;;9.50;99.90;;;;;;5054600;28;20182;-69
2021/01/19 16:00:23;;;;;;;7.63;6.20;;;9.50;99.90;;;;;;5054533;28;20178;-68
2021/01/19 16:02:51;;;;;;;7.20;6.50;;;9.50;99.90;;;;;;5054939;28;20167;-68
2021/01/19 16:05:17;;;;;;;8.27;7.47;;;9.50;99.90;;;;;;5054959;28;20232;-67
2021/01/19 16:07:44;;;;;;;7.10;6.40;;;9.40;99.90;;;;;;5056827;28;20422;-66
2021/01/19 16:10:09;;;;;;;7.70;6.73;;;9.20;99.90;;;;;;5063118;28;20214;-66
2021/01/19 16:12:35;;;;;;;9.30;7.40;;;9.30;99.90;;;;;;5064448;28;20429;-66
2021/01/19 16:15:01;;;;;;;8.30;7.50;;;9.30;99.90;;;;;;5064438;28;20186;-66
2021/01/19 16:17:26;;;;;;;10.87;8.30;;;9.30;99.90;;;;;;5064145;28;20779;-66
2021/01/19 16:19:52;;;;;;;8.60;7.60;;;9.20;99.90;;;;;;5063017;28;20262;-66
2021/01/19 16:22:17;;;;;;;8.87;6.87;;;9.20;99.90;;;;;;5056850;28;20725;-67
2021/01/19 16:24:43;;;;;;;12.40;8.37;;;9.20;99.90;;;;;;5054344;28;20270;-67
2021/01/19 16:27:09;;;;;;;11.10;7.90;;;9.30;99.90;;;;;;5054611;28;20171;-67
2021/01/19 16:29:34;;;;;;;8.83;6.63;;;9.40;99.90;;;;;;5054443;28;20241;-67
2021/01/19 16:32:03;;;;;;;8.80;7.90;;;9.40;99.90;;;;;;5053759;28;20170;-67
2021/01/19 16:34:29;;;;;;;10.23;7.33;;;9.20;99.90;;;;;;5070126;28;20214;-66
2021/01/19 16:36:54;;;;;;;11.40;8.37;;;9.30;99.90;;;;;;5074076;28;20931;-67
2021/01/19 16:39:20;;;;;;;10.37;6.13;;;9.30;99.90;;;;;;5074055;28;20460;-67
2021/01/19 16:41:46;;;;;;;8.60;7.57;;;9.30;99.90;;;;;;5074011;28;20178;-66
2021/01/19 16:44:12;;;;;;;7.67;7.00;;;9.20;99.90;;;;;;5074123;28;20552;-68
2021/01/19 16:46:51;;;;;;;8.20;7.30;;;9.20;99.90;;;;;;5074024;28;20463;-68
2021/01/19 16:49:17;;;;;;;8.60;7.30;;;9.20;99.90;;;;;;5073577;28;21131;-68
2021/01/19 16:51:43;;;;;;;8.87;7.53;;;9.30;99.90;;;;;;5074260;28;20420;-66
2021/01/19 16:54:08;;;;;;;8.90;8.07;;;9.20;99.90;;;;;;5074113;28;20425;-66
2021/01/19 16:56:37;;;;;;;8.17;7.47;;;9.30;99.90;;;;;;5073816;28;20174;-67
2021/01/19 16:59:04;;;;;;;9.00;7.23;;;9.30;99.90;;;;;;5058283;28;20211;-67
2021/01/19 17:01:30;;;;;;;9.93;8.20;;;9.00;99.90;;;;;;5053562;28;20418;-67
2021/01/19 17:03:56;;;;;;;9.07;8.27;;;9.10;99.90;;;;;;5052929;28;20797;-67
2021/01/19 17:06:29;;;;;;;9.40;8.40;;;9.00;99.90;;;;;;5051557;28;20171;-68
2021/01/19 17:08:56;;;;;;;10.20;8.70;;;9.00;99.90;;;;;;5051049;28;20202;-67
2021/01/19 17:11:21;;;;;;;9.77;8.60;;;9.00;99.90;;;;;;5051306;28;21208;-68
2021/01/19 17:13:47;;;;;;;11.60;8.37;;;9.00;99.90;;;;;;5052946;28;20422;-68
2021/01/19 17:16:14;;;;;;;9.33;7.53;;;9.10;99.90;;;;;;5053218;28;20191;-68
2021/01/19 17:18:40;;;;;;;9.03;8.03;;;9.10;99.90;;;;;;5051786;28;20178;-68
2021/01/19 17:21:06;;;;;;;10.33;8.27;;;9.00;99.90;;;;;;5051849;28;20429;-68
2021/01/19 17:23:32;;;;;;;8.97;8.07;;;9.10;99.90;;;;;;5052389;28;20487;-68
2021/01/19 17:25:57;;;;;;;9.10;8.20;;;9.10;99.90;;;;;;5052675;28;20980;-68
2021/01/19 17:28:23;;;;;;;13.40;8.30;;;9.20;99.90;;;;;;5053016;28;20230;-68
2021/01/19 17:30:51;;;;;;;8.50;7.70;;;9.20;99.90;;;;;;5052511;28;20225;-68
2021/01/19 17:33:18;;;;;;;8.30;7.47;;;9.20;99.90;;;;;;5051901;28;20924;-69
2021/01/19 17:35:43;;;;;;;7.67;6.83;;;9.20;99.90;;;;;;5051304;28;20509;-69
2021/01/19 17:38:09;;;;;;;7.57;6.60;;;9.20;99.90;;;;;;5051369;28;20529;-68
2021/01/19 17:40:34;;;;;;;7.47;6.70;;;9.30;99.90;;;;;;5052816;28;20217;-68
2021/01/19 17:43:00;;;;;;;10.03;7.47;;;9.20;99.90;;;;;;5048487;28;20182;-75
2021/01/19 17:45:28;;;;;;;6.83;6.13;;;9.10;99.90;;;;;;5052497;28;20175;-72
2021/01/19 17:47:54;;;;;;;13.10;7.03;;;9.10;99.90;;;;;;5052256;28;20190;-68
2021/01/19 17:50:19;;;;;;;7.93;7.23;;;9.10;99.90;;;;;;5052657;28;20434;-68
2021/01/19 17:52:45;;;;;;;7.30;6.60;;;9.10;99.90;;;;;;5052130;28;20179;-69
2021/01/19 17:55:12;;;;;;;10.70;6.70;;;9.20;99.90;;;;;;5052179;28;20185;-70
2021/01/19 17:57:42;;;;;;;9.00;6.60;;;9.10;99.90;;;;;;5051592;28;20321;-69
2021/01/19 18:00:10;;;;;;;7.03;6.13;;;9.10;99.90;;;;;;5052210;28;20441;-72
2021/01/19 18:02:35;;;;;;;7.73;6.93;;;9.00;99.90;;;;;;5052195;28;20469;-70
2021/01/19 18:05:01;;;;;;;7.63;6.87;;;9.10;99.90;;;;;;5052142;28;20499;-69
2021/01/19 18:07:28;;;;;;;10.50;7.10;;;9.10;99.90;;;;;;5052276;28;20227;-69
2021/01/19 18:09:55;;;;;;;7.40;6.43;;;9.10;99.90;;;;;;5052528;28;20219;-70
2021/01/19 18:12:28;;;;;;;8.00;6.50;;;9.00;99.90;;;;;;5052263;28;20805;-70
2021/01/19 18:14:54;;;;;;;7.07;6.40;;;9.00;99.90;;;;;;5052453;28;20916;-70
2021/01/19 18:17:20;;;;;;;8.33;7.53;;;9.10;99.90;;;;;;5052326;28;20428;-72
2021/01/19 18:19:46;;;;;;;9.07;6.67;;;9.10;99.90;;;;;;5052077;28;20433;-70
2021/01/19 18:22:18;;;;;;;8.67;7.53;;;9.10;99.90;;;;;;5051907;28;20931;-69
2021/01/19 18:24:45;;;;;;;8.33;7.50;;;9.10;99.90;;;;;;5052593;28;20653;-69
2021/01/19 18:27:11;;;;;;;11.07;6.70;;;9.10;99.90;;;;;;5052105;28;20421;-69
2021/01/19 18:29:37;;;;;;;8.60;7.00;;;9.00;99.90;;;;;;5052101;28;20556;-71
2021/01/19 18:32:03;;;;;;;9.90;7.07;;;9.00;99.90;;;;;;5052011;28;20199;-69
2021/01/19 18:34:31;;;;;;;8.50;7.70;;;9.00;99.90;;;;;;5050353;28;20653;-70
2021/01/19 18:37:00;;;;;;;10.60;6.90;;;9.00;99.90;;;;;;5052119;28;20440;-69
2021/01/19 18:39:27;;;;;;;10.00;7.87;;;8.90;99.90;;;;;;5053583;28;20476;-69
2021/01/19 18:41:57;;;;;;;7.27;6.53;;;8.70;99.90;;;;;;5057229;28;20994;-69
2021/01/19 18:44:23;;;;;;;11.63;7.87;;;8.80;99.90;;;;;;5049119;28;20433;-69
2021/01/19 18:46:52;;;;;;;8.50;7.70;;;8.80;99.90;;;;;;5051561;28;20517;-69
2021/01/19 18:49:18;;;;;;;8.00;7.20;;;8.80;99.90;;;;;;5051168;28;20234;-68
2021/01/19 18:51:43;;;;;;;10.40;7.00;;;8.70;99.90;;;;;;5051595;28;20586;-68
2021/01/19 18:54:09;;;;;;;9.60;7.87;;;8.70;99.90;;;;;;5051483;28;20175;-68
2021/01/19 18:56:36;;;;;;;13.40;7.70;;;8.80;99.90;;;;;;5051403;28;20302;-68
2021/01/19 18:59:04;;;;;;;10.83;6.90;;;8.80;99.90;;;;;;5048920;28;20550;-67
2021/01/19 19:01:30;;;;;;;10.10;8.00;;;8.90;99.90;;;;;;5059728;28;20437;-67
2021/01/19 19:03:55;;;;;;;9.47;7.57;;;8.80;99.90;;;;;;5061411;28;20453;-68
2021/01/19 19:06:23;;;;;;;9.80;7.03;;;8.80;99.90;;;;;;5060636;28;20173;-68
2021/01/19 19:08:51;;;;;;;7.87;6.90;;;8.80;99.90;;;;;;5057908;28;20205;-67
2021/01/19 19:11:31;;;;;;;9.40;7.40;;;8.70;99.90;;;;;;5064167;28;20428;-67
2021/01/19 19:14:01;;;;;;;9.20;7.03;;;8.70;99.90;;;;;;5062057;28;20424;-69
2021/01/19 19:16:32;;;;;;;7.00;6.30;;;8.70;99.90;;;;;;5056082;28;20433;-67
2021/01/19 19:18:59;;;;;;;7.97;6.90;;;8.80;99.90;;;;;;5060622;28;20885;-67
2021/01/19 19:21:25;;;;;;;6.97;6.27;;;8.80;99.90;;;;;;5055466;28;20464;-69
2021/01/19 19:23:51;;;;;;;6.53;5.60;;;8.80;99.90;;;;;;5055590;28;20425;-66
2021/01/19 19:26:17;;;;;;;7.53;5.90;;;8.80;99.90;;;;;;5068573;28;20432;-67
2021/01/19 19:28:43;;;;;;;8.13;6.50;;;8.60;99.90;;;;;;5075587;28;20476;-66
2021/01/19 19:31:11;;;;;;;6.20;5.57;;;8.50;99.90;;;;;;5075650;28;20770;-66
2021/01/19 19:33:38;;;;;;;6.50;5.90;;;8.50;99.90;;;;;;5075750;28;20432;-66
2021/01/19 19:36:05;;;;;;;6.67;6.00;;;8.50;99.90;;;;;;5075624;28;20793;-67
2021/01/19 19:38:32;;;;;;;5.47;4.90;;;8.60;99.90;;;;;;5075437;28;20427;-66
2021/01/19 19:40:59;;;;;;;9.30;5.57;;;8.60;99.90;;;;;;5070874;28;20437;-66
2021/01/19 19:43:25;;;;;;;6.20;4.70;;;8.60;99.90;;;;;;5060733;28;20441;-66
2021/01/19 19:45:51;;;;;;;4.60;4.20;;;8.60;99.90;;;;;;5056314;28;20556;-66
2021/01/19 19:48:16;;;;;;;5.73;5.13;;;8.50;99.90;;;;;;5075131;28;20570;-67
2021/01/19 19:50:42;;;;;;;6.70;5.73;;;8.50;99.90;;;;;;5070873;28;20186;-68
2021/01/19 19:53:07;;;;;;;5.87;4.80;;;8.50;99.90;;;;;;5065283;28;20268;-68
2021/01/19 19:55:33;;;;;;;7.20;4.83;;;8.50;99.90;;;;;;5063759;28;20235;-68
2021/01/19 19:57:59;;;;;;;7.10;4.20;;;8.50;99.90;;;;;;5065647;28;20283;-68
2021/01/19 20:00:24;;;;;;;7.07;5.63;;;8.30;99.90;;;;;;5070244;28;20183;-67
2021/01/19 20:02:53;;;;;;;7.53;5.53;;;8.30;99.90;;;;;;5055647;28;20175;-67
2021/01/19 20:05:19;;;;;;;7.03;4.77;;;8.40;99.90;;;;;;5057706;28;20597;-66
2021/01/19 20:07:45;;;;;;;7.93;5.03;;;8.30;99.90;;;;;;5064506;28;20437;-66
2021/01/19 20:10:11;;;;;;;6.50;4.87;;;8.40;99.90;;;;;;5058236;28;20473;-67
2021/01/19 20:12:36;;;;;;;7.37;4.80;;;8.40;99.90;;;;;;5054606;28;20171;-67
2021/01/19 20:15:03;;;;;;;7.83;5.47;;;8.40;99.90;;;;;;5054105;28;20182;-67
2021/01/19 20:17:29;;;;;;;5.90;4.90;;;8.40;99.90;;;;;;5063484;28;20589;-68
2021/01/19 20:19:55;;;;;;;8.00;5.27;;;8.30;99.90;;;;;;5055842;28;20445;-67
2021/01/19 20:22:21;;;;;;;6.10;5.50;;;8.30;99.90;;;;;;5054241;28;20517;-67
2021/01/19 20:24:46;;;;;;;8.20;6.20;;;8.20;99.90;;;;;;5054598;28;20722;-67
2021/01/19 20:27:12;;;;;;;7.90;7.10;;;8.30;99.90;;;;;;5054250;28;20171;-66
2021/01/19 20:29:37;;;;;;;7.60;6.80;;;8.30;99.90;;;;;;5073890;28;20214;-66
2021/01/19 20:32:03;;;;;;;6.43;5.83;;;8.30;99.90;;;;;;5074410;28;20638;-66
2021/01/19 20:34:29;;;;;;;8.27;7.57;;;8.40;99.90;;;;;;5074429;28;20178;-66
2021/01/19 20:36:58;;;;;;;7.77;6.97;;;8.40;99.90;;;;;;5074370;28;20523;-67
2021/01/19 20:39:25;;;;;;;8.47;6.10;;;8.40;99.90;;;;;;5073940;28;20249;-66
2021/01/19 20:41:51;;;;;;;6.67;6.07;;;8.50;99.90;;;;;;5074681;28;20428;-65
2021/01/19 20:44:17;;;;;;;7.23;6.53;;;8.40;99.90;;;;;;5071437;28;20445;-65
2021/01/19 20:46:42;;;;;;;11.30;7.37;;;8.40;99.90;;;;;;5054345;28;20171;-65
2021/01/19 20:49:08;;;;;;;8.23;6.60;;;8.40;99.90;;;;;;5069942;28;20700;-65
2021/01/19 20:51:34;;;;;;;7.40;6.70;;;8.40;99.90;;;;;;5074258;28;20588;-68
2021/01/19 20:53:59;;;;;;;6.87;6.27;;;8.20;99.90;;;;;;5074174;28;20421;-67
2021/01/19 20:56:25;;;;;;;7.53;6.80;;;8.20;99.90;;;;;;5074092;28;20167;-67
2021/01/19 20:58:51;;;;;;;7.67;6.97;;;8.30;99.90;;;;;;5074043;28;20182;-67
2021/01/19 21:01:16;;;;;;;8.07;6.97;;;8.40;99.90;;;;;;5074034;28;20202;-67
2021/01/19 21:03:43;;;;;;;8.40;6.70;;;8.20;99.90;;;;;;5073683;28;20699;-67
2021/01/19 21:06:10;;;;;;;8.37;6.63;;;8.30;99.90;;;;;;5059717;28;20229;-67
2021/01/19 21:08:36;;;;;;;7.90;7.13;;;8.40;99.90;;;;;;5063354;28;20492;-67
2021/01/19 21:11:02;;;;;;;7.00;5.93;;;8.50;99.90;;;;;;5062639;28;20438;-67
2021/01/19 21:13:28;;;;;;;8.60;7.40;;;8.50;99.90;;;;;;5061349;28;20478;-69
2021/01/19 21:15:53;;;;;;;7.93;6.40;;;8.50;99.90;;;;;;5059510;28;20470;-68
2021/01/19 21:18:19;;;;;;;9.00;7.00;;;8.50;99.90;;;;;;5054132;28;20183;-69
2021/01/19 21:20:44;;;;;;;8.00;6.57;;;8.40;99.90;;;;;;5063406;28;20175;-69
2021/01/19 21:23:10;;;;;;;6.03;5.53;;;8.50;99.90;;;;;;5063743;28;20182;-69
2021/01/19 21:25:36;;;;;;;9.30;5.70;;;8.50;99.90;;;;;;5067950;28;20203;-69
2021/01/19 21:28:02;;;;;;;6.63;5.87;;;8.40;99.90;;;;;;5073419;28;20166;-69
2021/01/19 21:30:28;;;;;;;10.13;5.23;;;8.40;99.90;;;;;;5073364;28;20428;-68
2021/01/19 21:32:56;;;;;;;8.00;6.03;;;8.40;99.90;;;;;;5071137;28;20438;-68
2021/01/19 21:35:26;;;;;;;9.03;6.63;;;8.30;99.90;;;;;;5059070;28;20194;-68
2021/01/19 21:37:52;;;;;;;8.30;6.60;;;8.30;99.90;;;;;;5053276;28;20465;-68
2021/01/19 21:40:18;;;;;;;7.40;6.70;;;8.40;99.90;;;;;;5067463;28;20761;-67
2021/01/19 21:42:44;;;;;;;7.20;6.50;;;8.40;99.90;;;;;;5072979;28;20432;-68
2021/01/19 21:45:12;;;;;;;8.70;6.90;;;8.40;99.90;;;;;;5073066;28;20285;-68
2021/01/19 21:47:45;;;;;;;7.93;6.50;;;8.40;99.90;;;;;;5072856;28;20181;-68
2021/01/19 21:50:13;;;;;;;6.00;5.60;;;8.30;99.90;;;;;;5060335;28;20882;-68
2021/01/19 21:52:40;;;;;;;5.50;5.00;;;8.30;99.90;;;;;;5062259;28;20792;-68
2021/01/19 21:55:06;;;;;;;6.70;5.63;;;8.40;99.90;;;;;;5063520;28;20490;-68
2021/01/19 21:57:32;;;;;;;6.53;5.37;;;8.40;99.90;;;;;;5061674;28;20421;-68
2021/01/19 21:59:58;;;;;;;5.80;5.00;;;8.40;99.90;;;;;;5062371;28;20472;-67
2021/01/19 22:02:23;;;;;;;6.07;4.90;;;8.30;99.90;;;;;;5063206;28;20461;-67
2021/01/19 22:04:50;;;;;;;8.47;5.00;;;8.20;99.90;;;;;;5061312;28;20179;-68
2021/01/19 22:07:16;;;;;;;5.60;5.00;;;8.30;99.90;;;;;;5057301;28;20641;-68
2021/01/19 22:09:41;;;;;;;6.47;4.70;;;8.20;99.90;;;;;;5052259;28;20476;-68
2021/01/19 22:12:08;;;;;;;5.87;4.87;;;8.30;99.90;;;;;;5052107;28;20179;-67
2021/01/19 22:14:33;;;;;;;8.10;5.40;;;8.30;99.90;;;;;;5049801;28;20183;-67
2021/01/19 22:16:59;;;;;;;7.90;4.77;;;8.20;99.90;;;;;;5052597;28;20433;-68
2021/01/19 22:19:24;;;;;;;4.90;4.50;;;8.10;99.90;;;;;;5052575;28;20648;-67
2021/01/19 22:21:51;;;;;;;5.87;4.70;;;8.10;99.90;;;;;;5052581;28;20174;-67
2021/01/19 22:24:16;;;;;;;5.50;5.00;;;8.10;99.90;;;;;;5052468;28;20186;-67
2021/01/19 22:26:42;;;;;;;5.43;4.33;;;7.90;99.90;;;;;;5052641;28;20418;-67
2021/01/19 22:29:08;;;;;;;7.67;5.10;;;8.00;99.90;;;;;;5052253;28;20210;-67
2021/01/19 22:31:33;;;;;;;6.70;5.30;;;8.00;99.90;;;;;;5052222;28;20207;-67
2021/01/19 22:33:59;;;;;;;7.07;4.37;;;8.10;99.90;;;;;;5052301;28;20198;-67
2021/01/19 22:36:24;;;;;;;5.20;4.53;;;8.20;99.90;;;;;;5052325;28;20229;-67
2021/01/19 22:38:50;;;;;;;5.53;4.27;;;8.20;99.90;;;;;;5052176;28;20170;-67
2021/01/19 22:41:15;;;;;;;7.90;5.23;;;8.00;99.90;;;;;;5052239;28;20179;-67
2021/01/19 22:43:41;;;;;;;4.90;4.37;;;8.10;99.90;;;;;;5052215;28;20163;-67
2021/01/19 22:46:07;;;;;;;7.10;5.00;;;8.00;99.90;;;;;;5052242;28;20582;-67
2021/01/19 22:48:36;;;;;;;5.40;4.63;;;8.00;99.90;;;;;;5051818;28;20226;-67
2021/01/19 22:51:03;;;;;;;9.17;4.73;;;8.00;99.90;;;;;;5052275;28;20551;-67
2021/01/19 22:53:29;;;;;;;7.33;4.00;;;7.90;99.90;;;;;;5052055;28;20475;-67
2021/01/19 22:55:55;;;;;;;6.87;6.00;;;7.80;99.90;;;;;;5052201;28;20441;-67
2021/01/19 22:58:20;;;;;;;5.03;4.50;;;7.70;99.90;;;;;;5051992;28;20566;-67
2021/01/19 23:00:46;;;;;;;9.80;5.13;;;7.70;99.90;;;;;;5052221;28;20254;-67
2021/01/19 23:03:12;;;;;;;6.67;4.57;;;7.80;99.90;;;;;;5051927;28;20205;-67
2021/01/19 23:05:37;;;;;;;6.33;4.00;;;7.70;99.90;;;;;;5052218;28;20175;-67
2021/01/19 23:08:03;;;;;;;7.97;5.27;;;7.70;99.90;;;;;;5051851;28;20274;-68
2021/01/19 23:10:29;;;;;;;11.13;6.07;;;7.70;99.90;;;;;;5052092;28;20183;-67
2021/01/19 23:12:55;;;;;;;9.73;4.90;;;7.70;99.90;;;;;;5051897;28;20516;-66
2021/01/19 23:15:20;;;;;;;6.73;4.63;;;7.70;99.90;;;;;;5052011;28;20257;-68
2021/01/19 23:17:46;;;;;;;10.47;5.80;;;7.60;99.90;;;;;;5051952;28;20178;-68
2021/01/19 23:20:12;;;;;;;9.10;5.00;;;7.50;99.90;;;;;;5051685;28;20185;-68
2021/01/19 23:22:38;;;;;;;11.07;5.77;;;7.50;99.90;;;;;;5052013;28;20217;-68
2021/01/19 23:25:05;;;;;;;10.37;5.83;;;7.50;99.90;;;;;;5051765;28;20635;-68
2021/01/19 23:27:31;;;;;;;9.57;5.33;;;7.60;99.90;;;;;;5051637;28;20758;-68
2021/01/19 23:29:56;;;;;;;6.83;4.50;;;7.70;99.90;;;;;;5051875;28;20511;-68
2021/01/19 23:32:22;;;;;;;8.30;4.90;;;7.60;99.90;;;;;;5051653;28;20232;-67
2021/01/19 23:34:49;;;;;;;11.30;5.40;;;7.60;99.90;;;;;;5051928;28;20202;-68
2021/01/19 23:37:14;;;;;;;10.57;5.10;;;7.50;99.90;;;;;;5051740;28;20583;-67
2021/01/19 23:39:40;;;;;;;8.03;4.83;;;7.70;99.90;;;;;;5051848;28;20551;-67